createdAt,value
2019-03-09T00:00:06.078Z,78.91
2019-03-09T00:01:06.090Z,79.15
2019-03-09T00:02:06.100Z,78.39
2019-03-09T00:03:06.099Z,78.96
2019-03-09T00:04:06.121Z,79.15
2019-03-09T00:05:06.123Z,78.58
2019-03-09T00:06:06.136Z,78.77
2019-03-09T00:07:06.151Z,79.44
2019-03-09T00:08:06.162Z,78.96
2019-03-09T00:09:06.165Z,78.77
2019-03-09T00:10:06.180Z,78.67
2019-03-09T00:11:06.211Z,78.77
2019-03-09T00:12:06.230Z,79.06
2019-03-09T00:13:06.220Z,78.87
2019-03-09T00:14:06.284Z,78.87
2019-03-09T00:15:06.238Z,78.77
2019-03-09T00:16:06.265Z,78.87
2019-03-09T00:17:06.319Z,79.10
2019-03-09T00:18:06.281Z,79.06
2019-03-09T00:19:06.297Z,78.67
2019-03-09T00:20:06.288Z,78.96
2019-03-09T00:21:06.329Z,78.96
2019-03-09T00:22:06.319Z,78.77
2019-03-09T00:23:06.342Z,78.87
2019-03-09T00:24:06.347Z,78.67
2019-03-09T00:25:06.345Z,78.96
2019-03-09T00:26:06.368Z,78.77
2019-03-09T00:27:06.378Z,78.87
2019-03-09T00:28:06.396Z,79.53
2019-03-09T00:29:06.590Z,79.06
2019-03-09T00:30:06.404Z,78.87
2019-03-09T00:31:06.503Z,79.06
2019-03-09T00:32:06.457Z,78.87
2019-03-09T00:33:06.445Z,78.58
2019-03-09T00:34:06.450Z,78.67
2019-03-09T00:35:06.471Z,78.96
2019-03-09T00:36:06.602Z,78.96
2019-03-09T00:37:06.487Z,78.96
2019-03-09T00:38:06.512Z,78.96
2019-03-09T00:39:06.550Z,78.87
2019-03-09T00:40:06.516Z,78.87
2019-03-09T00:41:06.533Z,79.06
2019-03-09T00:42:06.537Z,79.06
2019-03-09T00:43:06.591Z,78.77
2019-03-09T00:44:06.562Z,79.06
2019-03-09T00:45:06.589Z,78.67
2019-03-09T00:46:06.598Z,79.19
2019-03-09T00:47:06.603Z,78.81
2019-03-09T00:48:06.682Z,78.58
2019-03-09T00:49:06.618Z,78.58
2019-03-09T00:50:06.740Z,79.00
2019-03-09T00:51:06.651Z,78.53
2019-03-09T00:52:06.657Z,79.06
2019-03-09T00:53:06.676Z,78.87
2019-03-09T00:54:06.697Z,79.34
2019-03-09T00:55:06.691Z,79.53
2019-03-09T00:56:06.702Z,78.77
2019-03-09T00:57:06.707Z,79.00
2019-03-09T00:58:06.734Z,79.15
2019-03-09T00:59:06.737Z,79.15
2019-03-09T01:00:06.743Z,78.67
2019-03-09T01:01:06.748Z,79.34
2019-03-09T01:02:06.762Z,79.53
2019-03-09T01:03:06.769Z,79.25
2019-03-09T01:04:06.808Z,79.44
2019-03-09T01:05:06.882Z,79.25
2019-03-09T01:06:06.832Z,79.34
2019-03-09T01:07:06.834Z,78.96
2019-03-09T01:08:06.825Z,79.82
2019-03-09T01:09:06.854Z,79.53
2019-03-09T01:10:06.864Z,79.72
2019-03-09T01:11:06.874Z,79.25
2019-03-09T01:12:06.880Z,79.72
2019-03-09T01:13:06.894Z,79.63
2019-03-09T01:14:06.920Z,79.72
2019-03-09T01:15:06.908Z,78.96
2019-03-09T01:16:06.927Z,79.06
2019-03-09T01:17:06.926Z,79.06
2019-03-09T01:18:07.088Z,79.06
2019-03-09T01:19:06.954Z,79.15
2019-03-09T01:20:07.072Z,79.34
2019-03-09T01:21:06.978Z,79.34
2019-03-09T01:22:07.063Z,79.25
2019-03-09T01:23:06.994Z,79.06
2019-03-09T01:24:07.029Z,78.96
2019-03-09T01:25:07.020Z,79.25
2019-03-09T01:26:07.038Z,78.96
2019-03-09T01:27:07.085Z,79.72
2019-03-09T01:28:07.065Z,79.82
2019-03-09T01:29:07.111Z,79.25
2019-03-09T01:30:07.077Z,78.87
2019-03-09T01:31:07.095Z,79.06
2019-03-09T01:32:07.128Z,79.15
2019-03-09T01:33:07.103Z,79.44
2019-03-09T01:34:07.116Z,79.15
2019-03-09T01:35:07.279Z,78.77
2019-03-09T01:36:07.151Z,79.44
2019-03-09T01:37:07.170Z,78.67
2019-03-09T01:38:07.162Z,78.30
2019-03-09T01:39:07.189Z,78.39
2019-03-09T01:40:07.208Z,78.96
2019-03-09T01:41:07.200Z,78.30
2019-03-09T01:42:07.216Z,78.96
2019-03-09T01:43:07.226Z,78.11
2019-03-09T01:44:07.243Z,78.34
2019-03-09T01:45:07.239Z,78.81
2019-03-09T01:46:07.251Z,78.72
2019-03-09T01:47:07.256Z,78.91
2019-03-09T01:48:07.278Z,78.39
2019-03-09T01:49:07.291Z,78.87
2019-03-09T01:50:07.306Z,78.72
2019-03-09T01:51:07.359Z,78.77
2019-03-09T01:52:07.323Z,78.15
2019-03-09T01:53:07.352Z,78.20
2019-03-09T01:54:07.378Z,78.05
2019-03-09T01:55:07.386Z,78.11
2019-03-09T01:56:07.400Z,78.20
2019-03-09T01:57:07.398Z,78.11
2019-03-09T01:58:07.386Z,78.11
2019-03-09T01:59:07.396Z,78.05
2019-03-09T02:00:07.400Z,78.43
2019-03-09T02:01:07.413Z,77.73
2019-03-09T02:02:07.426Z,77.77
2019-03-09T02:03:07.442Z,77.96
2019-03-09T02:04:07.450Z,78.24
2019-03-09T02:05:07.459Z,77.39
2019-03-09T02:06:07.475Z,77.58
2019-03-09T02:07:07.500Z,77.67
2019-03-09T02:08:07.502Z,77.77
2019-03-09T02:09:07.516Z,78.15
2019-03-09T02:10:07.519Z,77.58
2019-03-09T02:11:07.528Z,77.48
2019-03-09T02:12:07.547Z,77.48
2019-03-09T02:13:07.554Z,77.20
2019-03-09T02:14:07.561Z,76.92
2019-03-09T02:15:07.583Z,77.01
2019-03-09T02:16:07.594Z,76.82
2019-03-09T02:17:07.601Z,76.82
2019-03-09T02:18:07.611Z,76.82
2019-03-09T02:19:07.620Z,77.01
2019-03-09T02:20:07.632Z,76.82
2019-03-09T02:21:07.642Z,77.01
2019-03-09T02:22:07.646Z,76.92
2019-03-09T02:23:07.683Z,77.01
2019-03-09T02:24:07.686Z,77.20
2019-03-09T02:25:07.697Z,76.92
2019-03-09T02:26:07.734Z,76.63
2019-03-09T02:27:07.710Z,76.63
2019-03-09T02:28:07.722Z,76.73
2019-03-09T02:29:07.745Z,76.44
2019-03-09T02:30:07.752Z,76.73
2019-03-09T02:31:07.762Z,76.63
2019-03-09T02:32:07.766Z,76.92
2019-03-09T02:33:07.780Z,77.11
2019-03-09T02:34:07.792Z,76.92
2019-03-09T02:35:07.812Z,77.29
2019-03-09T02:36:07.813Z,77.86
2019-03-09T02:37:07.820Z,78.43
2019-03-09T02:38:07.851Z,78.72
2019-03-09T02:39:07.858Z,78.15
2019-03-09T02:40:07.901Z,78.34
2019-03-09T02:41:07.868Z,79.00
2019-03-09T02:42:07.901Z,78.91
2019-03-09T02:43:07.927Z,79.19
2019-03-09T02:44:07.913Z,78.72
2019-03-09T02:45:07.925Z,79.19
2019-03-09T02:46:07.934Z,78.34
2019-03-09T02:47:07.936Z,78.53
2019-03-09T02:48:07.954Z,78.53
2019-03-09T02:49:07.996Z,79.28
2019-03-09T02:50:07.983Z,79.10
2019-03-09T02:51:08.048Z,79.28
2019-03-09T02:52:08.005Z,78.43
2019-03-09T02:53:08.017Z,78.53
2019-03-09T02:54:08.043Z,78.91
2019-03-09T02:55:08.035Z,78.91
2019-03-09T02:56:08.061Z,78.34
2019-03-09T02:57:08.058Z,79.10
2019-03-09T02:58:08.075Z,79.10
2019-03-09T02:59:08.089Z,78.91
2019-03-09T03:00:08.099Z,78.91
2019-03-09T03:01:08.126Z,78.53
2019-03-09T03:02:08.118Z,78.81
2019-03-09T03:03:08.128Z,78.24
2019-03-09T03:04:08.150Z,78.72
2019-03-09T03:05:08.151Z,78.95
2019-03-09T03:06:08.172Z,78.47
2019-03-09T03:07:08.182Z,78.00
2019-03-09T03:08:08.194Z,77.43
2019-03-09T03:09:08.215Z,77.62
2019-03-09T03:10:08.211Z,77.81
2019-03-09T03:11:08.242Z,76.76
2019-03-09T03:12:08.287Z,76.95
2019-03-09T03:13:08.259Z,77.24
2019-03-09T03:14:08.261Z,76.67
2019-03-09T03:15:08.291Z,76.57
2019-03-09T03:16:08.285Z,76.57
2019-03-09T03:17:08.293Z,76.67
2019-03-09T03:18:08.303Z,76.29
2019-03-09T03:19:08.382Z,76.39
2019-03-09T03:20:08.374Z,76.76
2019-03-09T03:21:08.353Z,76.48
2019-03-09T03:22:08.385Z,76.95
2019-03-09T03:23:08.377Z,76.57
2019-03-09T03:24:08.392Z,76.10
2019-03-09T03:25:08.415Z,76.10
2019-03-09T03:26:08.402Z,75.62
2019-03-09T03:27:08.437Z,75.81
2019-03-09T03:28:08.445Z,75.53
2019-03-09T03:29:08.468Z,76.01
2019-03-09T03:30:08.459Z,75.91
2019-03-09T03:31:08.462Z,75.53
2019-03-09T03:32:08.535Z,76.10
2019-03-09T03:33:08.490Z,75.62
2019-03-09T03:34:08.506Z,75.72
2019-03-09T03:35:08.507Z,75.72
2019-03-09T03:36:08.571Z,76.01
2019-03-09T03:37:08.531Z,76.01
2019-03-09T03:38:08.537Z,75.72
2019-03-09T03:39:08.560Z,76.20
2019-03-09T03:40:08.571Z,75.62
2019-03-09T03:41:08.610Z,76.10
2019-03-09T03:42:08.591Z,75.91
2019-03-09T03:43:08.596Z,76.01
2019-03-09T03:44:08.613Z,75.72
2019-03-09T03:45:08.668Z,76.10
2019-03-09T03:46:08.637Z,75.91
2019-03-09T03:47:08.786Z,75.72
2019-03-09T03:48:08.669Z,75.81
2019-03-09T03:49:08.667Z,76.01
2019-03-09T03:50:08.681Z,76.01
2019-03-09T03:51:08.713Z,75.81
2019-03-09T03:52:08.782Z,76.20
2019-03-09T03:53:08.718Z,75.72
2019-03-09T03:54:08.726Z,75.67
2019-03-09T03:55:08.757Z,76.10
2019-03-09T03:56:08.758Z,76.01
2019-03-09T03:57:08.775Z,75.81
2019-03-09T03:58:08.787Z,76.10
2019-03-09T03:59:08.792Z,76.20
2019-03-09T04:00:08.955Z,76.01
2019-03-09T04:01:08.835Z,75.91
2019-03-09T04:02:08.911Z,75.81
2019-03-09T04:03:08.890Z,75.81
2019-03-09T04:04:08.872Z,75.62
2019-03-09T04:05:08.886Z,75.76
2019-03-09T04:06:08.877Z,75.76
2019-03-09T04:07:08.941Z,75.67
2019-03-09T04:08:08.920Z,75.72
2019-03-09T04:09:08.903Z,76.04
2019-03-09T04:10:08.927Z,75.76
2019-03-09T04:11:08.969Z,75.85
2019-03-09T04:12:08.949Z,76.23
2019-03-09T04:13:08.959Z,76.14
2019-03-09T04:14:08.996Z,75.67
2019-03-09T04:15:08.978Z,75.81
2019-03-09T04:16:09.002Z,75.81
2019-03-09T04:17:09.028Z,76.10
2019-03-09T04:18:09.021Z,76.29
2019-03-09T04:19:09.027Z,75.85
2019-03-09T04:20:09.048Z,76.29
2019-03-09T04:21:09.078Z,76.29
2019-03-09T04:22:09.059Z,75.85
2019-03-09T04:23:09.077Z,76.32
2019-03-09T04:24:09.131Z,76.10
2019-03-09T04:25:09.099Z,75.95
2019-03-09T04:26:09.114Z,75.72
2019-03-09T04:27:09.122Z,75.62
2019-03-09T04:28:09.155Z,75.76
2019-03-09T04:29:09.146Z,75.91
2019-03-09T04:30:09.151Z,75.95
2019-03-09T04:31:09.257Z,76.01
2019-03-09T04:32:09.311Z,75.67
2019-03-09T04:33:09.208Z,75.76
2019-03-09T04:34:09.305Z,75.67
2019-03-09T04:35:09.220Z,75.95
2019-03-09T04:36:09.298Z,76.14
2019-03-09T04:37:09.535Z,76.04
2019-03-09T04:38:09.261Z,76.14
2019-03-09T04:39:09.263Z,75.67
2019-03-09T04:40:09.295Z,75.95
2019-03-09T04:41:09.282Z,75.76
2019-03-09T04:42:09.303Z,75.85
2019-03-09T04:43:09.315Z,76.14
2019-03-09T04:44:09.365Z,75.28
2019-03-09T04:45:09.337Z,75.57
2019-03-09T04:46:09.393Z,75.28
2019-03-09T04:47:09.358Z,75.38
2019-03-09T04:48:09.362Z,75.47
2019-03-09T04:49:09.412Z,75.19
2019-03-09T04:50:09.385Z,75.67
2019-03-09T04:51:09.398Z,75.47
2019-03-09T04:52:09.417Z,75.57
2019-03-09T04:53:09.443Z,75.09
2019-03-09T04:54:09.465Z,75.28
2019-03-09T04:55:09.452Z,75.47
2019-03-09T04:56:09.472Z,75.38
2019-03-09T04:57:09.472Z,75.47
2019-03-09T04:58:09.489Z,75.57
2019-03-09T04:59:09.493Z,75.67
2019-03-09T05:00:09.509Z,75.19
2019-03-09T05:01:09.518Z,75.76
2019-03-09T05:02:09.534Z,75.76
2019-03-09T05:03:09.590Z,75.67
2019-03-09T05:04:09.554Z,75.47
2019-03-09T05:05:09.660Z,75.57
2019-03-09T05:06:09.590Z,75.76
2019-03-09T05:07:09.635Z,75.09
2019-03-09T05:08:09.599Z,75.38
2019-03-09T05:09:09.618Z,75.09
2019-03-09T05:10:09.634Z,74.33
2019-03-09T05:11:09.667Z,74.90
2019-03-09T05:12:09.668Z,74.52
2019-03-09T05:13:09.657Z,74.81
2019-03-09T05:14:09.681Z,74.62
2019-03-09T05:15:09.698Z,74.15
2019-03-09T05:16:09.694Z,73.96
2019-03-09T05:17:09.710Z,73.96
2019-03-09T05:18:09.823Z,73.86
2019-03-09T05:19:09.761Z,74.24
2019-03-09T05:20:09.873Z,73.76
2019-03-09T05:21:09.813Z,73.96
2019-03-09T05:22:09.763Z,73.76
2019-03-09T05:23:09.852Z,73.86
2019-03-09T05:24:09.815Z,73.86
2019-03-09T05:25:09.884Z,73.57
2019-03-09T05:26:09.857Z,73.10
2019-03-09T05:27:09.896Z,73.19
2019-03-09T05:28:09.898Z,73.48
2019-03-09T05:29:09.903Z,73.10
2019-03-09T05:30:09.880Z,73.76
2019-03-09T05:31:09.918Z,73.19
2019-03-09T05:32:09.933Z,73.67
2019-03-09T05:33:09.967Z,73.38
2019-03-09T05:34:09.925Z,73.48
2019-03-09T05:35:10.079Z,72.72
2019-03-09T05:36:09.940Z,72.72
2019-03-09T05:37:09.958Z,72.81
2019-03-09T05:38:09.989Z,72.06
2019-03-09T05:39:10.029Z,71.96
2019-03-09T05:40:09.993Z,71.86
2019-03-09T05:41:10.039Z,71.86
2019-03-09T05:42:10.015Z,71.67
2019-03-09T05:43:10.064Z,71.67
2019-03-09T05:44:10.071Z,71.77
2019-03-09T05:45:10.095Z,71.86
2019-03-09T05:46:10.109Z,72.25
2019-03-09T05:47:10.221Z,72.06
2019-03-09T05:48:10.303Z,72.34
2019-03-09T05:49:10.107Z,71.58
2019-03-09T05:50:10.195Z,72.00
2019-03-09T05:51:10.129Z,71.96
2019-03-09T05:52:10.315Z,71.90
2019-03-09T05:53:10.262Z,71.86
2019-03-09T05:54:10.286Z,72.72
2019-03-09T05:55:10.186Z,73.67
2019-03-09T05:56:10.248Z,73.19
2019-03-09T05:57:10.208Z,73.38
2019-03-09T05:58:10.298Z,72.91
2019-03-09T05:59:10.210Z,72.53
2019-03-09T06:00:10.291Z,72.56
2019-03-09T06:01:04.053Z,72.00
2019-03-09T06:02:03.485Z,72.09
2019-03-09T06:04:57.067Z,70.95
2019-03-09T06:06:52.217Z,70.29
2019-03-09T06:07:53.663Z,70.48
2019-03-09T06:09:49.651Z,70.57
2019-03-09T06:10:45.778Z,70.38
2019-03-09T06:12:40.795Z,69.05
2019-03-09T06:13:38.407Z,69.24
2019-03-09T06:15:32.110Z,68.39
2019-03-09T06:16:32.063Z,68.67
2019-03-09T06:17:32.014Z,68.19
2019-03-09T06:18:32.034Z,67.06
2019-03-09T06:19:32.143Z,66.96
2019-03-09T06:20:32.063Z,67.25
2019-03-09T06:21:32.072Z,67.06
2019-03-09T06:22:32.155Z,67.15
2019-03-09T06:23:32.102Z,66.67
2019-03-09T06:24:32.095Z,66.58
2019-03-09T06:25:32.109Z,66.01
2019-03-09T06:26:32.142Z,65.82
2019-03-09T06:27:32.132Z,65.82
2019-03-09T06:28:32.147Z,65.35
2019-03-09T06:29:32.166Z,64.90
2019-03-09T06:30:32.202Z,65.16
2019-03-09T06:31:32.183Z,65.25
2019-03-09T06:32:32.189Z,65.25
2019-03-09T06:33:32.211Z,65.47
2019-03-09T06:34:32.223Z,65.73
2019-03-09T06:35:32.243Z,65.35
2019-03-09T06:36:32.241Z,65.06
2019-03-09T06:37:32.299Z,65.67
2019-03-09T06:38:32.256Z,65.82
2019-03-09T06:39:32.263Z,66.30
2019-03-09T06:40:32.274Z,67.25
2019-03-09T06:41:32.294Z,67.44
2019-03-09T06:42:32.290Z,68.19
2019-03-09T06:43:32.307Z,68.86
2019-03-09T06:44:32.347Z,69.71
2019-03-09T06:45:32.332Z,70.38
2019-03-09T06:46:32.342Z,70.48
2019-03-09T06:47:32.341Z,70.10
2019-03-09T06:48:32.354Z,70.38
2019-03-09T06:49:32.371Z,70.48
2019-03-09T06:50:32.373Z,70.29
2019-03-09T06:51:32.410Z,70.76
2019-03-09T06:52:32.397Z,70.67
2019-03-09T06:53:32.488Z,70.57
2019-03-09T06:54:32.431Z,70.00
2019-03-09T06:55:32.461Z,69.81
2019-03-09T06:56:32.458Z,69.62
2019-03-09T06:57:32.506Z,70.29
2019-03-09T06:58:32.468Z,69.81
2019-03-09T06:59:32.488Z,69.24
2019-03-09T07:00:32.508Z,68.86
2019-03-09T07:01:32.506Z,68.86
2019-03-09T07:02:32.523Z,69.34
2019-03-09T07:03:32.519Z,68.67
2019-03-09T07:04:32.537Z,68.39
2019-03-09T07:05:32.548Z,68.39
2019-03-09T07:06:32.549Z,68.58
2019-03-09T07:07:32.555Z,68.67
2019-03-09T07:08:32.577Z,68.67
2019-03-09T07:09:32.588Z,69.15
2019-03-09T07:10:32.642Z,68.96
2019-03-09T07:11:32.608Z,68.77
2019-03-09T07:12:32.718Z,68.90
2019-03-09T07:13:32.632Z,68.77
2019-03-09T07:14:32.641Z,68.19
2019-03-09T07:15:32.738Z,68.58
2019-03-09T07:16:32.649Z,68.39
2019-03-09T07:17:32.664Z,69.18
2019-03-09T07:18:32.703Z,69.05
2019-03-09T07:19:32.762Z,68.19
2019-03-09T07:20:32.701Z,68.71
2019-03-09T07:21:32.714Z,68.52
2019-03-09T07:22:32.739Z,68.48
2019-03-09T07:23:32.772Z,68.23
2019-03-09T07:24:32.755Z,67.94
2019-03-09T07:25:32.761Z,67.85
2019-03-09T07:26:32.763Z,68.04
2019-03-09T07:27:32.776Z,67.28
2019-03-09T07:28:32.786Z,67.38
2019-03-09T07:29:32.802Z,67.28
2019-03-09T07:30:32.818Z,67.38
2019-03-09T07:31:32.826Z,67.38
2019-03-09T07:32:32.829Z,67.94
2019-03-09T07:33:32.903Z,67.66
2019-03-09T07:34:32.895Z,67.76
2019-03-09T07:35:32.865Z,67.66
2019-03-09T07:36:32.873Z,67.85
2019-03-09T07:37:32.897Z,67.85
2019-03-09T07:38:32.899Z,67.57
2019-03-09T07:39:32.915Z,67.57
2019-03-09T07:40:32.919Z,67.66
2019-03-09T07:41:32.938Z,67.19
2019-03-09T07:42:32.936Z,67.66
2019-03-09T07:43:32.957Z,67.19
2019-03-09T07:44:33.016Z,67.76
2019-03-09T07:45:32.987Z,67.57
2019-03-09T07:46:33.081Z,67.57
2019-03-09T07:47:32.995Z,67.85
2019-03-09T07:48:33.046Z,67.76
2019-03-09T07:49:33.015Z,68.33
2019-03-09T07:50:33.034Z,67.85
2019-03-09T07:51:33.057Z,67.85
2019-03-09T07:52:33.130Z,68.42
2019-03-09T07:53:33.095Z,68.23
2019-03-09T07:54:33.091Z,68.23
2019-03-09T07:55:33.099Z,68.13
2019-03-09T07:56:33.211Z,68.42
2019-03-09T07:57:33.108Z,68.04
2019-03-09T07:58:33.124Z,68.23
2019-03-09T07:59:33.131Z,68.13
2019-03-09T08:00:33.145Z,68.23
2019-03-09T08:01:33.223Z,67.66
2019-03-09T08:02:33.156Z,67.76
2019-03-09T08:03:33.181Z,67.85
2019-03-09T08:04:33.178Z,68.04
2019-03-09T08:05:33.211Z,68.13
2019-03-09T08:06:33.255Z,67.85
2019-03-09T08:07:33.246Z,68.04
2019-03-09T08:08:33.236Z,68.42
2019-03-09T08:09:33.241Z,68.52
2019-03-09T08:10:33.308Z,68.04
2019-03-09T08:11:33.266Z,67.76
2019-03-09T08:12:33.288Z,68.04
2019-03-09T08:13:33.327Z,68.13
2019-03-09T08:14:33.315Z,68.33
2019-03-09T08:15:33.359Z,67.85
2019-03-09T08:16:35.933Z,67.94
2019-03-09T08:17:33.342Z,68.33
2019-03-09T08:18:33.440Z,67.57
2019-03-09T08:19:33.373Z,67.57
2019-03-09T08:20:33.380Z,67.69
2019-03-09T08:21:33.383Z,67.60
2019-03-09T08:22:33.514Z,67.98
2019-03-09T08:23:33.404Z,67.60
2019-03-09T08:25:48.939Z,82.21
2019-03-09T08:26:48.933Z,74.77
2019-03-09T08:28:42.411Z,65.07
2019-03-09T08:29:42.385Z,61.31
2019-03-09T08:31:35.956Z,57.06
2019-03-09T08:32:35.935Z,55.18
2019-03-09T08:34:29.447Z,52.64
2019-03-09T08:35:29.427Z,51.51
2019-03-09T08:37:23.007Z,50.29
2019-03-09T08:38:23.004Z,49.62
2019-03-09T08:40:16.544Z,47.82
2019-03-09T08:42:01.786Z,51.09
2019-03-09T08:43:01.767Z,48.79
2019-03-09T08:44:01.778Z,46.98
2019-03-09T08:45:01.810Z,46.31
2019-03-09T08:46:01.818Z,46.89
2019-03-09T08:47:01.812Z,46.31
2019-03-09T08:48:01.842Z,45.73
2019-03-09T08:49:01.873Z,45.45
2019-03-09T08:50:01.907Z,45.18
2019-03-09T08:51:01.886Z,45.18
2019-03-09T08:52:01.921Z,45.08
2019-03-09T08:53:01.937Z,45.28
2019-03-09T08:54:01.982Z,44.70
2019-03-09T08:55:01.977Z,44.70
2019-03-09T08:56:01.991Z,44.60
2019-03-09T08:57:02.016Z,44.41
2019-03-09T08:58:02.035Z,44.60
2019-03-09T08:59:02.050Z,44.51
2019-03-09T09:00:02.055Z,44.02
2019-03-09T09:01:02.077Z,44.41
2019-03-09T09:02:02.101Z,43.84
2019-03-09T09:03:02.117Z,43.84
2019-03-09T09:04:02.128Z,43.84
2019-03-09T09:05:02.159Z,43.57
2019-03-09T09:06:02.181Z,43.74
2019-03-09T09:07:02.196Z,44.72
2019-03-09T09:08:03.811Z,44.82
2019-03-09T09:09:02.253Z,43.76
2019-03-09T09:10:02.268Z,43.57
2019-03-09T09:11:02.269Z,44.22
2019-03-09T09:12:02.290Z,44.24
2019-03-09T09:13:02.331Z,43.57
2019-03-09T09:14:02.341Z,43.47
2019-03-09T09:15:02.356Z,44.34
2019-03-09T09:16:02.367Z,43.85
2019-03-09T09:17:02.386Z,43.66
2019-03-09T09:18:02.415Z,43.57
2019-03-09T09:19:02.436Z,43.57
2019-03-09T09:20:02.453Z,43.47
2019-03-09T09:21:02.480Z,44.53
2019-03-09T09:22:02.509Z,44.72
2019-03-09T09:23:03.164Z,44.14
2019-03-09T09:24:02.547Z,45.29
2019-03-09T09:25:02.553Z,44.91
2019-03-09T09:26:02.586Z,44.62
2019-03-09T09:27:02.611Z,44.72
2019-03-09T09:28:12.024Z,44.62
2019-03-09T09:29:12.009Z,45.59
2019-03-09T09:30:12.032Z,45.29
2019-03-09T09:31:12.064Z,45.87
2019-03-09T09:32:12.081Z,45.78
2019-03-09T09:33:12.088Z,46.45
2019-03-09T09:34:12.114Z,46.06
2019-03-09T09:35:12.131Z,46.36
2019-03-09T09:36:12.147Z,46.64
2019-03-09T09:37:12.170Z,46.55
2019-03-09T09:38:12.194Z,46.64
2019-03-09T09:39:12.232Z,46.55
2019-03-09T09:40:12.236Z,47.15
2019-03-09T09:41:12.272Z,46.45
2019-03-09T09:42:12.284Z,46.47
2019-03-09T09:43:12.296Z,46.09
2019-03-09T09:44:12.330Z,46.28
2019-03-09T09:45:12.359Z,45.42
2019-03-09T09:46:12.375Z,46.09
2019-03-09T09:47:12.393Z,45.70
2019-03-09T09:48:12.447Z,45.90
2019-03-09T09:49:12.426Z,45.90
2019-03-09T09:50:12.454Z,45.80
2019-03-09T09:51:12.472Z,45.99
2019-03-09T09:52:12.498Z,45.70
